This is the latest recevied weather packets stored in our database for station/object N4JTC. If no packets are shown the sender has not sent any weather packets the latest 10 day(s).
| Time | Temp. | Humidity | Pressure | Rain* | Wind** | Luminosity | Snow |
|---|---|---|---|---|---|---|---|
| 1777480204 | 28.33° C | 71% | 1017 hPa | 0 mm | - | 745 W/m² | - |
| 1777479903 | 27.78° C | 74% | 1016.6 hPa | 0 mm | - | 1018 W/m² | - |
| 1777479603 | 27.78° C | 72% | 1016.6 hPa | 0 mm | - | 300 W/m² | - |
| 1777479303 | 27.78° C | 71% | 1016.8 hPa | 0 mm | - | 611 W/m² | - |
| 1777479003 | 28.33° C | 70% | 1017 hPa | 0 mm | - | 416 W/m² | - |
| 1777478702 | 27.78° C | 72% | 1017.1 hPa | 0 mm | - | 1065 W/m² | - |
| 1777478403 | 27.22° C | 73% | 1017.3 hPa | 0 mm | - | 845 W/m² | - |
| 1777478103 | 27.78° C | 73% | 1017.4 hPa | 0 mm | - | 618 W/m² | - |
| 1777477503 | 27.22° C | 73% | 1018.2 hPa | 0 mm | - | 1021 W/m² | - |
| 1777477203 | 27.22° C | 73% | 1018.5 hPa | 0 mm | - | 370 W/m² | - |
| 1777476903 | 27.22° C | 74% | 1018.4 hPa | 0 mm | - | 821 W/m² | - |
| 1777476302 | 28.33° C | 71% | 1018.6 hPa | 0 mm | - | 609 W/m² | - |
| 1777475703 | 27.78° C | 73% | 1018.4 hPa | 0 mm | - | 560 W/m² | - |
| 1777475403 | 27.78° C | 74% | 1018.4 hPa | 0 mm | - | 882 W/m² | - |
| 1777475102 | 26.67° C | 75% | 1018.3 hPa | 0 mm | - | 851 W/m² | - |
| 1777474803 | 26.67° C | 76% | 1018.2 hPa | 0 mm | - | 496 W/m² | - |
| 1777474503 | 26.67° C | 76% | 1018.3 hPa | 0 mm | - | 719 W/m² | - |
| 1777473902 | 27.22° C | 74% | 1018.4 hPa | 0 mm | - | 665 W/m² | - |
| 1777473604 | 27.22° C | 74% | 1018.6 hPa | 0 mm | - | 668 W/m² | - |
| 1777473303 | 26.11° C | 77% | 1018.5 hPa | 0 mm | - | 725 W/m² | - |
| 1777473003 | 26.67° C | 77% | 1018.3 hPa | 0 mm | - | 632 W/m² | - |
| 1777472703 | 26.67° C | 76% | 1018.1 hPa | 0 mm | - | 554 W/m² | - |
| 1777472403 | 26.67° C | 75% | 1018.2 hPa | 0 mm | - | 518 W/m² | - |
| 1777472103 | 26.67° C | 76% | 1018.1 hPa | 0 mm | - | 642 W/m² | - |
| 1777471804 | 25.56° C | 77% | 1018 hPa | 0 mm | - | 688 W/m² | - |
* Rain latest hour (hover to see other rain measurements)
** Current wind speed in m/s (hover to see current wind gust speed)